Αρχική σελίδα
METAR-TAF:

METAR-TAF

Αεροδρόμια :

Woodward, Οκλαχόμα, Ηνωμένες Πολιτείες Αμερικής

γεωγραφικό πλάτος: 36-26-12N, γεωγραφικό μήκος: 099-31-16W, υψόμετρο: 667 μ

Παρών καιρός

Η αναφορά έγινε 25 λεπτά πριν, στις 01:55 UTC
Άνεμος 11 kt από Ν
Θερμοκρασία 15°C
Υγρασία 44%
Πίεση 1021 hPa
Ορατότητα: 16.1 χλμ
Καθαρός ουρανός

METAR: KWWR 220155Z AUTO 17011KT 10SM CLR 15/03 A3015 RMK AO2

Χρόνος: 21:20 (02:20 UTC)

Πρόγνωση Καιρού

Η αναφορά έγινε 2 ώρες και 53 λεπτά πριν, στις 23:27 UTC
Η πρόγνωση ισχύει από τις 22 στις 00 UTC έως τις 22 στις 24 UTC
Άνεμος 15 kt από Ν
Ορατότητα: 10 χλμ
Διάσπαρτα νέφη σε ύψος 12000 πόδια
Από 22 στις 1800 UTC
Άνεμος 5 kt από μεταβλητές κατευθύνσεις
Ορατότητα: 10 χλμ
Λίγα νέφη σε ύψος 4000 πόδια

TAF: KWWR 212327Z 2200/2224 19015KT P6SM SCT120 FM221800 VRB05KT P6SM FEW040

Μετεωρολογικές αναφορές και προγνώσεις για περισσότερα από 4000 αεροδρόμια (δελτία METAR και TAF).

Οι διαθέσιμοι σταθμοί απεικονίζονται στο χάρτη με κίτρινες και κόκκινες κουκκίδες.

Μετακινήστε το ποντίκι πάνω από τις κουκκίδες για να δείτε το όνομα του σταθμού.

Στη συνέχεια, κάντε κλικ για να δείτε τις μετεωρολογικές αναφορές και τις προγνώσεις καιρού.

Για να αλλάξετε το χάρτη: κάντε κλικ στα πράσινα κουμπιά με τον μαύρο σταυρό για να ζουμάρετε, στο πράσινο κουμπί με την παύλα για να αφαιρέσετε το ζουμ ή στα πράσινα βέλη για να αντιπαραβάλλετε χάρτες.


METAR-TAF: